Time,TemperatureF,DewpointF,PressureIn,WindDirection,WindDirectionDegrees,WindSpeedMPH,WindSpeedGustMPH,Humidity,HourlyPrecipIn,Conditions,Clouds,dailyrainin,SoftwareType,DateUTC
2013-02-12 02:22:00,32.0,-99.9,-100.00,West,259,10.0,10.0,-999,-99.99,,,-99.99,,2013-02-12 10:22:00,
2013-02-12 02:32:00,33.0,-99.9,-100.00,West,261,8.0,10.0,-999,-99.99,,,-99.99,,2013-02-12 10:32:00,
2013-02-12 02:43:00,33.0,-99.9,-100.00,West,261,8.0,10.0,-999,-99.99,,,-99.99,,2013-02-12 10:43:00,
2013-02-12 02:52:00,33.0,-99.9,-100.00,West,261,8.0,10.0,-999,-99.99,,,-99.99,,2013-02-12 10:52:00,
2013-02-12 03:10:00,33.0,-99.9,-100.00,WSW,256,7.0,10.0,-999,-99.99,,,-99.99,,2013-02-12 11:10:00,
2013-02-12 03:53:00,33.0,-99.9,-100.00,WSW,256,7.0,10.0,-999,-99.99,,,-99.99,,2013-02-12 11:53:00,
2013-02-12 04:02:00,33.0,-99.9,-100.00,WSW,256,7.0,10.0,-999,-99.99,,,-99.99,,2013-02-12 12:02:00,
2013-02-12 04:53:00,33.0,-99.9,-100.00,West,264,7.0,10.0,-999,-99.99,,,-99.99,,2013-02-12 12:53:00,
2013-02-12 05:02:00,33.0,-99.9,-100.00,West,264,7.0,10.0,-999,-99.99,,,-99.99,,2013-02-12 13:02:00,
2013-02-12 06:32:00,32.0,-99.9,-100.00,West,274,7.0,12.0,-999,-99.99,,,-99.99,,2013-02-12 14:32:00,
2013-02-12 06:40:00,31.0,-99.9,-100.00,WSW,251,6.0,11.0,-999,-99.99,,,-99.99,,2013-02-12 14:40:00,
2013-02-12 06:42:00,32.0,-99.9,-100.00,West,274,7.0,12.0,-999,-99.99,,,-99.99,,2013-02-12 14:42:00,
2013-02-12 06:52:00,32.0,-99.9,-100.00,West,274,7.0,12.0,-999,-99.99,,,-99.99,,2013-02-12 14:52:00,
2013-02-12 07:22:00,31.0,-99.9,-100.00,WSW,251,6.0,11.0,-999,-99.99,,,-99.99,,2013-02-12 15:22:00,
2013-02-12 07:32:00,31.0,-99.9,-100.00,WSW,251,6.0,11.0,-999,-99.99,,,-99.99,,2013-02-12 15:32:00,
2013-02-12 07:52:00,32.0,-99.9,-100.00,WSW,250,8.0,11.0,-999,-99.99,,,-99.99,,2013-02-12 15:52:00,
2013-02-12 08:02:00,32.0,-99.9,-100.00,WSW,250,8.0,11.0,-999,-99.99,,,-99.99,,2013-02-12 16:02:00,
2013-02-12 10:52:00,48.0,-99.9,-100.00,ESE,109,5.0,5.0,-999,-99.99,,,-99.99,,2013-02-12 18:52:00,
2013-02-12 11:02:00,48.0,-99.9,-100.00,ESE,109,5.0,5.0,-999,-99.99,,,-99.99,,2013-02-12 19:02:00,
2013-02-12 13:52:00,54.0,-99.9,-100.00,SE,136,6.0,9.0,-999,-99.99,,,-99.99,,2013-02-12 21:52:00,
2013-02-12 14:00:00,57.0,-99.9,-100.00,SSE,159,4.0,9.0,-999,-99.99,,,-99.99,,2013-02-12 22:00:00,
2013-02-12 14:02:00,54.0,-99.9,-100.00,SE,136,6.0,9.0,-999,-99.99,,,-99.99,,2013-02-12 22:02:00,
2013-02-12 14:52:00,57.0,-99.9,-100.00,SSE,159,4.0,9.0,-999,-99.99,,,-99.99,,2013-02-12 22:52:00,
2013-02-12 15:22:00,56.0,-99.9,-100.00,SSE,154,8.0,10.0,-999,-99.99,,,-99.99,,2013-02-12 23:22:00,
2013-02-12 15:32:00,56.0,-99.9,-100.00,SSE,154,8.0,10.0,-999,-99.99,,,-99.99,,2013-02-12 23:32:00,
2013-02-12 15:42:00,56.0,-99.9,-100.00,SSE,154,8.0,10.0,-999,-99.99,,,-99.99,,2013-02-12 23:42:00,
2013-02-12 16:32:00,55.0,-99.9,-100.00,East,96,9.0,10.0,-999,-99.99,,,-99.99,,2013-02-13 00:32:00,
2013-02-12 16:42:00,55.0,-99.9,-100.00,East,96,9.0,10.0,-999,-99.99,,,-99.99,,2013-02-13 00:42:00,
2013-02-12 17:01:00,54.0,-99.9,-100.00,ESE,110,10.0,12.0,-999,-99.99,,,-99.99,,2013-02-13 01:01:00,
2013-02-12 17:11:00,54.0,-99.9,-100.00,ESE,110,10.0,12.0,-999,-99.99,,,-99.99,,2013-02-13 01:11:00,
2013-02-12 17:20:00,51.0,-99.9,-100.00,East,99,2.0,4.0,-999,-99.99,,,-99.99,,2013-02-13 01:20:00,
2013-02-12 17:52:00,53.0,-99.9,-100.00,East,99,6.0,7.0,-999,-99.99,,,-99.99,,2013-02-13 01:52:00,
2013-02-12 18:01:00,51.0,-99.9,-100.00,East,99,2.0,4.0,-999,-99.99,,,-99.99,,2013-02-13 02:01:00,
2013-02-12 18:11:00,51.0,-99.9,-100.00,East,99,2.0,4.0,-999,-99.99,,,-99.99,,2013-02-13 02:11:00,
2013-02-12 18:20:00,42.0,-99.9,-100.00,WNW,292,3.0,4.0,-999,-99.99,,,-99.99,,2013-02-13 02:20:00,
2013-02-12 19:00:00,41.0,-99.9,-100.00,West,259,4.0,8.0,-999,-99.99,,,-99.99,,2013-02-13 03:00:00,
2013-02-12 19:02:00,42.0,-99.9,-100.00,WNW,292,3.0,4.0,-999,-99.99,,,-99.99,,2013-02-13 03:02:00,
2013-02-12 19:12:00,42.0,-99.9,-100.00,WNW,292,3.0,4.0,-999,-99.99,,,-99.99,,2013-02-13 03:12:00,
2013-02-12 19:32:00,41.0,-99.9,-100.00,West,259,4.0,8.0,-999,-99.99,,,-99.99,,2013-02-13 03:32:00,
2013-02-12 19:42:00,41.0,-99.9,-100.00,West,259,4.0,8.0,-999,-99.99,,,-99.99,,2013-02-13 03:42:00,
2013-02-12 19:50:00,40.0,-99.9,-100.00,West,279,6.0,8.0,-999,-99.99,,,-99.99,,2013-02-13 03:50:00,
2013-02-12 19:52:00,41.0,-99.9,-100.00,West,259,4.0,8.0,-999,-99.99,,,-99.99,,2013-02-13 03:52:00,
2013-02-12 20:32:00,40.0,-99.9,-100.00,West,279,6.0,8.0,-999,-99.99,,,-99.99,,2013-02-13 04:32:00,
2013-02-12 20:42:00,40.0,-99.9,-100.00,West,279,6.0,8.0,-999,-99.99,,,-99.99,,2013-02-13 04:42:00,
2013-02-12 22:02:00,40.0,-99.9,-100.00,West,264,6.0,9.0,-999,-99.99,,,-99.99,,2013-02-13 06:02:00,
2013-02-12 22:12:00,40.0,-99.9,-100.00,West,264,6.0,9.0,-999,-99.99,,,-99.99,,2013-02-13 06:12:00,
2013-02-12 22:22:00,40.0,-99.9,-100.00,West,264,6.0,9.0,-999,-99.99,,,-99.99,,2013-02-13 06:22:00,
2013-02-12 23:32:00,41.0,-99.9,-100.00,West,273,4.0,6.0,-999,-99.99,,,-99.99,,2013-02-13 07:32:00,
2013-02-12 23:42:00,41.0,-99.9,-100.00,West,273,4.0,6.0,-999,-99.99,,,-99.99,,2013-02-13 07:42:00,